Little Marais, Minnesota
Current Conditions -  °F | °C
As of 2:14 PM on Friday 19 Dec 2014 (Local Time) from KBFW Reporting Station
Light Snow Light Snow  
Wind Chill: 27°   Ceiling: 1200
Heat Index: 27°   Visibility: 3mi
Dew Point: 21°   Wind: 0mph
Humidity: 80%   Direction: NA
Pressure: 30.17"   Gusts: NA
Location:  47.3801°N, 91.2964°W
Report Text: KBFW 192014Z AUTO 00000KT 3SM -SN OVC012 M03/M06 A3017 RMK AO2
Loading
Personal Weather Stations






























Interactive Weather Map New forecast layout! Learn more

10-Day Weather Forecast

Advertisements
Track Severe Weather on mobile